sensor_id;sensor_type;location;lat;lon;timestamp;temperature;humidity
49218;DHT22;35045;51.194;7.268;2023-10-09T00:00:14;15.60;99.90
49218;DHT22;35045;51.194;7.268;2023-10-09T00:02:58;15.60;99.90
49218;DHT22;35045;51.194;7.268;2023-10-09T00:05:27;15.60;99.90
49218;DHT22;35045;51.194;7.268;2023-10-09T00:08:05;15.50;99.90
49218;DHT22;35045;51.194;7.268;2023-10-09T00:10:31;15.50;99.90
49218;DHT22;35045;51.194;7.268;2023-10-09T00:13:03;15.50;99.90
49218;DHT22;35045;51.194;7.268;2023-10-09T00:15:29;15.50;99.90
49218;DHT22;35045;51.194;7.268;2023-10-09T00:17:59;15.50;99.90
49218;DHT22;35045;51.194;7.268;2023-10-09T00:20:25;15.40;99.90
49218;DHT22;35045;51.194;7.268;2023-10-09T00:23:04;15.30;99.90
49218;DHT22;35045;51.194;7.268;2023-10-09T00:25:38;15.30;99.90
49218;DHT22;35045;51.194;7.268;2023-10-09T00:28:11;15.20;99.90
49218;DHT22;35045;51.194;7.268;2023-10-09T00:30:41;15.10;99.90
49218;DHT22;35045;51.194;7.268;2023-10-09T00:33:07;15.00;99.90
49218;DHT22;35045;51.194;7.268;2023-10-09T00:35:38;15.00;99.90
49218;DHT22;35045;51.194;7.268;2023-10-09T00:38:10;15.00;99.90
49218;DHT22;35045;51.194;7.268;2023-10-09T00:40:48;15.00;99.90
49218;DHT22;35045;51.194;7.268;2023-10-09T00:43:23;14.90;99.90
49218;DHT22;35045;51.194;7.268;2023-10-09T00:45:56;14.90;99.90
49218;DHT22;35045;51.194;7.268;2023-10-09T00:48:26;15.00;99.90
49218;DHT22;35045;51.194;7.268;2023-10-09T00:50:57;14.90;99.90
49218;DHT22;35045;51.194;7.268;2023-10-09T00:53:26;14.90;99.90
49218;DHT22;35045;51.194;7.268;2023-10-09T00:56:01;14.90;99.90
49218;DHT22;35045;51.194;7.268;2023-10-09T00:58:50;14.90;99.90
49218;DHT22;35045;51.194;7.268;2023-10-09T01:01:37;14.90;99.90
49218;DHT22;35045;51.194;7.268;2023-10-09T01:04:05;14.90;99.90
49218;DHT22;35045;51.194;7.268;2023-10-09T01:06:33;14.90;99.90
49218;DHT22;35045;51.194;7.268;2023-10-09T01:09:09;14.90;99.90
49218;DHT22;35045;51.194;7.268;2023-10-09T01:11:36;14.90;99.90
49218;DHT22;35045;51.194;7.268;2023-10-09T01:14:16;14.90;99.90
49218;DHT22;35045;51.194;7.268;2023-10-09T01:16:42;15.00;99.90
49218;DHT22;35045;51.194;7.268;2023-10-09T01:19:09;15.00;99.90
49218;DHT22;35045;51.194;7.268;2023-10-09T01:21:39;15.00;99.90
49218;DHT22;35045;51.194;7.268;2023-10-09T01:24:05;15.10;99.90
49218;DHT22;35045;51.194;7.268;2023-10-09T01:26:35;15.20;99.90
49218;DHT22;35045;51.194;7.268;2023-10-09T01:29:13;15.20;99.90
49218;DHT22;35045;51.194;7.268;2023-10-09T01:31:43;15.20;99.90
49218;DHT22;35045;51.194;7.268;2023-10-09T01:34:30;15.20;99.90
49218;DHT22;35045;51.194;7.268;2023-10-09T01:37:09;15.20;99.90
49218;DHT22;35045;51.194;7.268;2023-10-09T01:39:47;15.20;99.90
49218;DHT22;35045;51.194;7.268;2023-10-09T01:42:23;15.20;99.90
49218;DHT22;35045;51.194;7.268;2023-10-09T01:45:11;15.20;99.90
49218;DHT22;35045;51.194;7.268;2023-10-09T01:47:53;15.30;99.90
49218;DHT22;35045;51.194;7.268;2023-10-09T01:50:23;15.20;99.90
49218;DHT22;35045;51.194;7.268;2023-10-09T01:52:53;15.30;99.90
49218;DHT22;35045;51.194;7.268;2023-10-09T01:55:19;15.30;99.90
49218;DHT22;35045;51.194;7.268;2023-10-09T01:57:59;15.30;99.90
49218;DHT22;35045;51.194;7.268;2023-10-09T02:00:31;15.30;99.90
49218;DHT22;35045;51.194;7.268;2023-10-09T02:03:01;15.30;99.90
49218;DHT22;35045;51.194;7.268;2023-10-09T02:05:31;15.30;99.90
49218;DHT22;35045;51.194;7.268;2023-10-09T02:08:01;15.30;99.90
49218;DHT22;35045;51.194;7.268;2023-10-09T02:10:31;15.30;99.90
49218;DHT22;35045;51.194;7.268;2023-10-09T02:12:58;15.30;99.90
49218;DHT22;35045;51.194;7.268;2023-10-09T02:15:25;15.30;99.90
49218;DHT22;35045;51.194;7.268;2023-10-09T02:18:11;15.30;99.90
49218;DHT22;35045;51.194;7.268;2023-10-09T02:23:31;15.40;99.90
49218;DHT22;35045;51.194;7.268;2023-10-09T02:26:23;15.40;99.90
49218;DHT22;35045;51.194;7.268;2023-10-09T02:28:58;15.40;99.90
49218;DHT22;35045;51.194;7.268;2023-10-09T02:31:25;15.40;99.90
49218;DHT22;35045;51.194;7.268;2023-10-09T02:33:54;15.40;99.90
49218;DHT22;35045;51.194;7.268;2023-10-09T02:36:21;15.40;99.90
49218;DHT22;35045;51.194;7.268;2023-10-09T02:38:47;15.40;99.90
49218;DHT22;35045;51.194;7.268;2023-10-09T02:41:15;15.40;99.90
49218;DHT22;35045;51.194;7.268;2023-10-09T02:43:41;15.40;99.90
49218;DHT22;35045;51.194;7.268;2023-10-09T02:46:14;15.40;99.90
49218;DHT22;35045;51.194;7.268;2023-10-09T02:48:46;15.30;99.90
49218;DHT22;35045;51.194;7.268;2023-10-09T02:51:19;15.30;99.90
49218;DHT22;35045;51.194;7.268;2023-10-09T02:54:08;15.40;99.90
49218;DHT22;35045;51.194;7.268;2023-10-09T02:56:45;15.30;99.90
49218;DHT22;35045;51.194;7.268;2023-10-09T02:59:14;15.30;99.90
49218;DHT22;35045;51.194;7.268;2023-10-09T03:01:41;15.30;99.90
49218;DHT22;35045;51.194;7.268;2023-10-09T03:04:07;15.30;99.90
49218;DHT22;35045;51.194;7.268;2023-10-09T03:06:36;15.30;99.90
49218;DHT22;35045;51.194;7.268;2023-10-09T03:09:09;15.20;99.90
49218;DHT22;35045;51.194;7.268;2023-10-09T03:11:46;15.30;99.90
49218;DHT22;35045;51.194;7.268;2023-10-09T03:14:14;15.30;99.90
49218;DHT22;35045;51.194;7.268;2023-10-09T03:16:40;15.30;99.90
49218;DHT22;35045;51.194;7.268;2023-10-09T03:19:06;15.40;99.90
49218;DHT22;35045;51.194;7.268;2023-10-09T03:21:33;15.40;99.90
49218;DHT22;35045;51.194;7.268;2023-10-09T03:23:59;15.40;99.90
49218;DHT22;35045;51.194;7.268;2023-10-09T03:26:30;15.40;99.90
49218;DHT22;35045;51.194;7.268;2023-10-09T03:28:57;15.40;99.90
49218;DHT22;35045;51.194;7.268;2023-10-09T03:31:27;15.50;99.90
49218;DHT22;35045;51.194;7.268;2023-10-09T03:33:56;15.50;99.90
49218;DHT22;35045;51.194;7.268;2023-10-09T03:36:22;15.50;99.90
49218;DHT22;35045;51.194;7.268;2023-10-09T03:38:52;15.50;99.90
49218;DHT22;35045;51.194;7.268;2023-10-09T03:41:24;15.50;99.90
49218;DHT22;35045;51.194;7.268;2023-10-09T03:43:52;15.50;99.90
49218;DHT22;35045;51.194;7.268;2023-10-09T03:46:22;15.60;99.90
49218;DHT22;35045;51.194;7.268;2023-10-09T03:48:58;15.50;99.90
49218;DHT22;35045;51.194;7.268;2023-10-09T03:51:29;15.60;99.90
49218;DHT22;35045;51.194;7.268;2023-10-09T03:53:55;15.50;99.90
49218;DHT22;35045;51.194;7.268;2023-10-09T03:56:21;15.60;99.90
49218;DHT22;35045;51.194;7.268;2023-10-09T03:58:48;15.60;99.90
49218;DHT22;35045;51.194;7.268;2023-10-09T04:01:16;15.60;99.90
49218;DHT22;35045;51.194;7.268;2023-10-09T04:03:54;15.60;99.90
49218;DHT22;35045;51.194;7.268;2023-10-09T04:06:21;15.70;99.90
49218;DHT22;35045;51.194;7.268;2023-10-09T04:08:48;15.60;99.90
49218;DHT22;35045;51.194;7.268;2023-10-09T04:11:16;15.70;99.90
49218;DHT22;35045;51.194;7.268;2023-10-09T04:13:45;15.70;99.90
49218;DHT22;35045;51.194;7.268;2023-10-09T04:16:12;15.60;99.90
49218;DHT22;35045;51.194;7.268;2023-10-09T04:18:57;15.60;99.90
49218;DHT22;35045;51.194;7.268;2023-10-09T04:21:23;15.60;99.90
49218;DHT22;35045;51.194;7.268;2023-10-09T04:24:05;15.60;99.90
49218;DHT22;35045;51.194;7.268;2023-10-09T04:26:41;15.60;99.90
49218;DHT22;35045;51.194;7.268;2023-10-09T04:29:13;15.60;99.90
49218;DHT22;35045;51.194;7.268;2023-10-09T04:32:15;15.60;99.90
49218;DHT22;35045;51.194;7.268;2023-10-09T04:34:44;15.50;99.90
49218;DHT22;35045;51.194;7.268;2023-10-09T04:37:22;15.60;99.90
49218;DHT22;35045;51.194;7.268;2023-10-09T04:40:03;15.60;99.90
49218;DHT22;35045;51.194;7.268;2023-10-09T04:42:59;15.60;99.90
49218;DHT22;35045;51.194;7.268;2023-10-09T04:45:25;15.50;99.90
49218;DHT22;35045;51.194;7.268;2023-10-09T04:48:09;15.50;99.90
49218;DHT22;35045;51.194;7.268;2023-10-09T04:50:36;15.50;99.90
49218;DHT22;35045;51.194;7.268;2023-10-09T04:53:14;15.50;99.90
49218;DHT22;35045;51.194;7.268;2023-10-09T04:55:43;15.50;99.90
49218;DHT22;35045;51.194;7.268;2023-10-09T04:58:20;15.50;99.90
49218;DHT22;35045;51.194;7.268;2023-10-09T05:00:53;15.50;99.90
49218;DHT22;35045;51.194;7.268;2023-10-09T05:03:25;15.50;99.90
49218;DHT22;35045;51.194;7.268;2023-10-09T05:05:55;15.50;99.90
49218;DHT22;35045;51.194;7.268;2023-10-09T05:08:25;15.50;99.90
49218;DHT22;35045;51.194;7.268;2023-10-09T05:10:58;15.50;99.90
49218;DHT22;35045;51.194;7.268;2023-10-09T05:16:18;15.50;99.90
49218;DHT22;35045;51.194;7.268;2023-10-09T05:18:45;15.50;99.90
49218;DHT22;35045;51.194;7.268;2023-10-09T05:21:37;15.50;99.90
49218;DHT22;35045;51.194;7.268;2023-10-09T05:24:13;15.50;99.90
49218;DHT22;35045;51.194;7.268;2023-10-09T05:29:15;15.40;99.90
49218;DHT22;35045;51.194;7.268;2023-10-09T05:32:00;15.40;99.90
49218;DHT22;35045;51.194;7.268;2023-10-09T05:34:33;15.40;99.90
49218;DHT22;35045;51.194;7.268;2023-10-09T05:37:01;15.40;99.90
49218;DHT22;35045;51.194;7.268;2023-10-09T05:39:45;15.40;99.90
49218;DHT22;35045;51.194;7.268;2023-10-09T05:42:34;15.40;99.90
49218;DHT22;35045;51.194;7.268;2023-10-09T05:45:14;15.40;99.90
49218;DHT22;35045;51.194;7.268;2023-10-09T05:47:44;15.40;99.90
49218;DHT22;35045;51.194;7.268;2023-10-09T05:50:25;15.40;99.90
49218;DHT22;35045;51.194;7.268;2023-10-09T05:52:52;15.40;99.90
49218;DHT22;35045;51.194;7.268;2023-10-09T05:55:18;15.40;99.90
49218;DHT22;35045;51.194;7.268;2023-10-09T05:57:45;15.30;99.90
49218;DHT22;35045;51.194;7.268;2023-10-09T06:00:30;15.20;99.90
49218;DHT22;35045;51.194;7.268;2023-10-09T06:03:14;15.20;99.90
49218;DHT22;35045;51.194;7.268;2023-10-09T06:05:47;15.30;99.90
49218;DHT22;35045;51.194;7.268;2023-10-09T06:08:22;15.30;99.90
49218;DHT22;35045;51.194;7.268;2023-10-09T06:11:07;15.30;99.90
49218;DHT22;35045;51.194;7.268;2023-10-09T06:13:52;15.40;99.90
49218;DHT22;35045;51.194;7.268;2023-10-09T06:16:39;15.40;99.90
49218;DHT22;35045;51.194;7.268;2023-10-09T06:19:09;15.50;99.90
49218;DHT22;35045;51.194;7.268;2023-10-09T06:21:38;15.60;99.90
49218;DHT22;35045;51.194;7.268;2023-10-09T06:24:23;15.50;99.90
49218;DHT22;35045;51.194;7.268;2023-10-09T06:26:50;15.60;99.90
49218;DHT22;35045;51.194;7.268;2023-10-09T06:29:25;15.60;99.90
49218;DHT22;35045;51.194;7.268;2023-10-09T06:32:10;15.70;99.90
49218;DHT22;35045;51.194;7.268;2023-10-09T06:35:00;15.80;99.90
49218;DHT22;35045;51.194;7.268;2023-10-09T06:37:43;15.80;99.90
49218;DHT22;35045;51.194;7.268;2023-10-09T06:40:33;15.80;99.90
49218;DHT22;35045;51.194;7.268;2023-10-09T06:43:18;15.70;99.90
49218;DHT22;35045;51.194;7.268;2023-10-09T06:45:47;15.80;99.90
49218;DHT22;35045;51.194;7.268;2023-10-09T06:48:23;15.80;99.90
49218;DHT22;35045;51.194;7.268;2023-10-09T06:51:13;15.80;99.90
49218;DHT22;35045;51.194;7.268;2023-10-09T06:53:48;15.90;99.90
49218;DHT22;35045;51.194;7.268;2023-10-09T06:56:21;15.90;99.90
49218;DHT22;35045;51.194;7.268;2023-10-09T07:01:24;15.90;99.90
49218;DHT22;35045;51.194;7.268;2023-10-09T07:04:08;16.00;99.90
49218;DHT22;35045;51.194;7.268;2023-10-09T07:06:47;16.00;99.90
49218;DHT22;35045;51.194;7.268;2023-10-09T07:09:13;16.00;99.90
49218;DHT22;35045;51.194;7.268;2023-10-09T07:11:40;16.00;99.90
49218;DHT22;35045;51.194;7.268;2023-10-09T07:14:07;16.10;99.90
49218;DHT22;35045;51.194;7.268;2023-10-09T07:16:33;16.00;99.90
49218;DHT22;35045;51.194;7.268;2023-10-09T07:19:05;16.10;99.90
49218;DHT22;35045;51.194;7.268;2023-10-09T07:21:57;16.10;99.90
49218;DHT22;35045;51.194;7.268;2023-10-09T07:24:31;16.10;99.90
49218;DHT22;35045;51.194;7.268;2023-10-09T07:27:09;16.20;99.90
49218;DHT22;35045;51.194;7.268;2023-10-09T07:29:37;16.20;99.90
49218;DHT22;35045;51.194;7.268;2023-10-09T07:32:14;16.20;99.90
49218;DHT22;35045;51.194;7.268;2023-10-09T07:34:46;16.20;99.90
49218;DHT22;35045;51.194;7.268;2023-10-09T07:37:27;16.30;99.90
49218;DHT22;35045;51.194;7.268;2023-10-09T07:39:56;16.30;99.90
49218;DHT22;35045;51.194;7.268;2023-10-09T07:42:23;16.30;99.90
49218;DHT22;35045;51.194;7.268;2023-10-09T07:45:00;16.30;99.90
49218;DHT22;35045;51.194;7.268;2023-10-09T07:47:37;16.40;99.90
49218;DHT22;35045;51.194;7.268;2023-10-09T07:50:22;16.40;99.90
49218;DHT22;35045;51.194;7.268;2023-10-09T07:52:48;16.40;99.90
49218;DHT22;35045;51.194;7.268;2023-10-09T07:55:16;16.40;99.90
49218;DHT22;35045;51.194;7.268;2023-10-09T07:58:05;16.40;99.90
49218;DHT22;35045;51.194;7.268;2023-10-09T08:00:36;16.50;99.90
49218;DHT22;35045;51.194;7.268;2023-10-09T08:03:03;16.60;99.90
49218;DHT22;35045;51.194;7.268;2023-10-09T08:05:35;16.60;99.90
49218;DHT22;35045;51.194;7.268;2023-10-09T08:08:10;16.70;99.90
49218;DHT22;35045;51.194;7.268;2023-10-09T08:10:56;16.80;99.90
49218;DHT22;35045;51.194;7.268;2023-10-09T08:13:45;16.80;99.90
49218;DHT22;35045;51.194;7.268;2023-10-09T08:16:31;16.80;99.90
49218;DHT22;35045;51.194;7.268;2023-10-09T08:19:03;16.80;99.90
49218;DHT22;35045;51.194;7.268;2023-10-09T08:21:49;16.80;99.90
49218;DHT22;35045;51.194;7.268;2023-10-09T08:24:34;16.70;99.90
49218;DHT22;35045;51.194;7.268;2023-10-09T08:27:15;16.70;99.90
49218;DHT22;35045;51.194;7.268;2023-10-09T08:30:03;16.70;99.90
49218;DHT22;35045;51.194;7.268;2023-10-09T08:32:54;16.70;99.90
49218;DHT22;35045;51.194;7.268;2023-10-09T08:35:36;16.60;99.90
49218;DHT22;35045;51.194;7.268;2023-10-09T08:38:15;16.60;99.90
49218;DHT22;35045;51.194;7.268;2023-10-09T08:40:47;16.60;99.90
49218;DHT22;35045;51.194;7.268;2023-10-09T08:43:14;16.60;99.90
49218;DHT22;35045;51.194;7.268;2023-10-09T08:45:41;16.60;99.90
49218;DHT22;35045;51.194;7.268;2023-10-09T08:48:10;16.60;99.90
49218;DHT22;35045;51.194;7.268;2023-10-09T08:50:41;16.70;99.90
49218;DHT22;35045;51.194;7.268;2023-10-09T08:53:09;16.70;99.90
49218;DHT22;35045;51.194;7.268;2023-10-09T08:55:36;16.70;99.90
49218;DHT22;35045;51.194;7.268;2023-10-09T08:58:03;16.80;99.90
49218;DHT22;35045;51.194;7.268;2023-10-09T09:00:44;16.80;99.90
49218;DHT22;35045;51.194;7.268;2023-10-09T09:03:12;16.80;99.90
49218;DHT22;35045;51.194;7.268;2023-10-09T09:05:39;17.00;99.90
49218;DHT22;35045;51.194;7.268;2023-10-09T09:08:11;17.00;99.90
49218;DHT22;35045;51.194;7.268;2023-10-09T09:10:47;17.00;99.90
49218;DHT22;35045;51.194;7.268;2023-10-09T09:13:16;16.90;99.90
49218;DHT22;35045;51.194;7.268;2023-10-09T09:15:47;16.90;99.90
49218;DHT22;35045;51.194;7.268;2023-10-09T09:18:13;16.90;99.90
49218;DHT22;35045;51.194;7.268;2023-10-09T09:20:43;17.00;99.90
49218;DHT22;35045;51.194;7.268;2023-10-09T09:23:12;17.00;99.90
49218;DHT22;35045;51.194;7.268;2023-10-09T09:25:42;17.00;99.90
49218;DHT22;35045;51.194;7.268;2023-10-09T09:28:14;17.00;99.90
49218;DHT22;35045;51.194;7.268;2023-10-09T09:30:45;17.10;99.90
49218;DHT22;35045;51.194;7.268;2023-10-09T09:33:17;17.10;99.90
49218;DHT22;35045;51.194;7.268;2023-10-09T09:36:04;17.30;99.90
49218;DHT22;35045;51.194;7.268;2023-10-09T09:38:31;17.30;99.90
49218;DHT22;35045;51.194;7.268;2023-10-09T09:41:17;17.40;99.90
49218;DHT22;35045;51.194;7.268;2023-10-09T09:43:53;17.60;99.90
49218;DHT22;35045;51.194;7.268;2023-10-09T09:46:24;17.80;99.90
49218;DHT22;35045;51.194;7.268;2023-10-09T09:49:03;18.00;99.90
49218;DHT22;35045;51.194;7.268;2023-10-09T09:51:30;18.20;99.90
49218;DHT22;35045;51.194;7.268;2023-10-09T09:53:56;18.20;99.90
49218;DHT22;35045;51.194;7.268;2023-10-09T09:56:26;18.30;99.90
49218;DHT22;35045;51.194;7.268;2023-10-09T09:58:54;18.20;99.90
49218;DHT22;35045;51.194;7.268;2023-10-09T10:01:24;18.20;99.90
49218;DHT22;35045;51.194;7.268;2023-10-09T10:03:55;18.10;99.90
49218;DHT22;35045;51.194;7.268;2023-10-09T10:06:23;18.10;99.90
49218;DHT22;35045;51.194;7.268;2023-10-09T10:08:52;18.10;99.90
49218;DHT22;35045;51.194;7.268;2023-10-09T10:14:06;18.00;99.90
49218;DHT22;35045;51.194;7.268;2023-10-09T10:19:21;18.00;99.90
49218;DHT22;35045;51.194;7.268;2023-10-09T10:21:48;17.90;99.90
49218;DHT22;35045;51.194;7.268;2023-10-09T10:29:44;18.10;99.90
49218;DHT22;35045;51.194;7.268;2023-10-09T10:32:16;18.20;99.90
49218;DHT22;35045;51.194;7.268;2023-10-09T10:37:35;18.40;99.90
49218;DHT22;35045;51.194;7.268;2023-10-09T10:40:22;18.40;99.90
49218;DHT22;35045;51.194;7.268;2023-10-09T10:43:07;18.40;99.90
49218;DHT22;35045;51.194;7.268;2023-10-09T10:45:39;18.50;99.90
49218;DHT22;35045;51.194;7.268;2023-10-09T10:48:11;18.50;99.90
49218;DHT22;35045;51.194;7.268;2023-10-09T10:51:03;18.60;99.90
49218;DHT22;35045;51.194;7.268;2023-10-09T10:53:30;18.60;99.90
49218;DHT22;35045;51.194;7.268;2023-10-09T10:56:05;18.70;99.90
49218;DHT22;35045;51.194;7.268;2023-10-09T10:58:58;18.70;99.90
49218;DHT22;35045;51.194;7.268;2023-10-09T11:01:31;18.70;99.90
49218;DHT22;35045;51.194;7.268;2023-10-09T11:04:16;18.80;99.90
49218;DHT22;35045;51.194;7.268;2023-10-09T11:07:06;18.80;99.90
49218;DHT22;35045;51.194;7.268;2023-10-09T11:09:51;18.80;99.90
49218;DHT22;35045;51.194;7.268;2023-10-09T11:12:28;18.90;99.90
49218;DHT22;35045;51.194;7.268;2023-10-09T11:15:05;18.90;99.90
49218;DHT22;35045;51.194;7.268;2023-10-09T11:17:32;19.00;99.90
49218;DHT22;35045;51.194;7.268;2023-10-09T11:20:02;19.00;99.90
49218;DHT22;35045;51.194;7.268;2023-10-09T11:22:49;19.00;99.90
49218;DHT22;35045;51.194;7.268;2023-10-09T11:25:34;19.00;99.90
49218;DHT22;35045;51.194;7.268;2023-10-09T11:28:00;19.10;99.90
49218;DHT22;35045;51.194;7.268;2023-10-09T11:30:46;19.10;99.90
49218;DHT22;35045;51.194;7.268;2023-10-09T11:33:12;19.10;99.90
49218;DHT22;35045;51.194;7.268;2023-10-09T11:35:41;19.20;99.90
49218;DHT22;35045;51.194;7.268;2023-10-09T11:38:09;19.30;99.90
49218;DHT22;35045;51.194;7.268;2023-10-09T11:40:49;19.50;99.90
49218;DHT22;35045;51.194;7.268;2023-10-09T11:43:18;19.40;99.90
49218;DHT22;35045;51.194;7.268;2023-10-09T11:45:49;19.40;99.90
49218;DHT22;35045;51.194;7.268;2023-10-09T11:48:21;19.40;99.90
49218;DHT22;35045;51.194;7.268;2023-10-09T11:50:53;19.40;99.90
49218;DHT22;35045;51.194;7.268;2023-10-09T11:53:45;19.40;99.90
49218;DHT22;35045;51.194;7.268;2023-10-09T11:56:21;19.40;99.90
49218;DHT22;35045;51.194;7.268;2023-10-09T11:58:48;19.40;99.90
49218;DHT22;35045;51.194;7.268;2023-10-09T12:01:17;19.40;99.90
49218;DHT22;35045;51.194;7.268;2023-10-09T12:03:46;19.50;99.90
49218;DHT22;35045;51.194;7.268;2023-10-09T12:06:16;19.50;99.90
49218;DHT22;35045;51.194;7.268;2023-10-09T12:08:45;19.60;99.90
49218;DHT22;35045;51.194;7.268;2023-10-09T12:11:15;19.70;99.90
49218;DHT22;35045;51.194;7.268;2023-10-09T12:13:49;19.70;99.90
49218;DHT22;35045;51.194;7.268;2023-10-09T12:16:15;19.80;99.90
49218;DHT22;35045;51.194;7.268;2023-10-09T12:18:41;19.80;99.90
49218;DHT22;35045;51.194;7.268;2023-10-09T12:21:08;19.70;99.90
49218;DHT22;35045;51.194;7.268;2023-10-09T12:23:41;19.70;99.90
49218;DHT22;35045;51.194;7.268;2023-10-09T12:26:09;19.80;99.90
49218;DHT22;35045;51.194;7.268;2023-10-09T12:28:40;19.70;99.90
49218;DHT22;35045;51.194;7.268;2023-10-09T12:31:12;19.80;99.90
49218;DHT22;35045;51.194;7.268;2023-10-09T12:33:41;19.80;99.90
49218;DHT22;35045;51.194;7.268;2023-10-09T12:36:13;19.80;99.90
49218;DHT22;35045;51.194;7.268;2023-10-09T12:38:49;19.80;99.90
49218;DHT22;35045;51.194;7.268;2023-10-09T12:41:25;19.80;99.90
49218;DHT22;35045;51.194;7.268;2023-10-09T12:43:54;19.90;99.90
49218;DHT22;35045;51.194;7.268;2023-10-09T12:46:21;19.80;99.90
49218;DHT22;35045;51.194;7.268;2023-10-09T12:48:51;19.80;99.90
49218;DHT22;35045;51.194;7.268;2023-10-09T12:51:20;19.80;99.90
49218;DHT22;35045;51.194;7.268;2023-10-09T12:53:46;19.80;99.90
49218;DHT22;35045;51.194;7.268;2023-10-09T12:56:16;19.80;99.90
49218;DHT22;35045;51.194;7.268;2023-10-09T12:58:44;19.80;99.90
49218;DHT22;35045;51.194;7.268;2023-10-09T13:01:19;19.80;99.90
49218;DHT22;35045;51.194;7.268;2023-10-09T13:03:46;19.80;99.90
49218;DHT22;35045;51.194;7.268;2023-10-09T13:06:15;19.90;99.90
49218;DHT22;35045;51.194;7.268;2023-10-09T13:08:41;19.80;99.90
49218;DHT22;35045;51.194;7.268;2023-10-09T13:11:09;19.80;99.90
49218;DHT22;35045;51.194;7.268;2023-10-09T13:13:38;19.80;99.90
49218;DHT22;35045;51.194;7.268;2023-10-09T13:16:09;19.80;99.90
49218;DHT22;35045;51.194;7.268;2023-10-09T13:18:41;19.90;99.90
49218;DHT22;35045;51.194;7.268;2023-10-09T13:21:07;20.00;99.90
49218;DHT22;35045;51.194;7.268;2023-10-09T13:23:33;20.00;99.90
49218;DHT22;35045;51.194;7.268;2023-10-09T13:26:06;20.10;99.90
49218;DHT22;35045;51.194;7.268;2023-10-09T13:28:51;20.10;99.90
49218;DHT22;35045;51.194;7.268;2023-10-09T13:31:17;20.20;99.90
49218;DHT22;35045;51.194;7.268;2023-10-09T13:33:44;20.20;99.90
49218;DHT22;35045;51.194;7.268;2023-10-09T13:36:10;20.10;99.90
49218;DHT22;35045;51.194;7.268;2023-10-09T13:38:53;20.20;99.90
49218;DHT22;35045;51.194;7.268;2023-10-09T13:41:20;20.20;99.90
49218;DHT22;35045;51.194;7.268;2023-10-09T13:43:46;20.30;99.90
49218;DHT22;35045;51.194;7.268;2023-10-09T13:46:12;20.50;99.90
49218;DHT22;35045;51.194;7.268;2023-10-09T13:48:41;20.40;99.90
49218;DHT22;35045;51.194;7.268;2023-10-09T13:51:09;20.50;99.90
49218;DHT22;35045;51.194;7.268;2023-10-09T13:53:40;20.40;99.90
49218;DHT22;35045;51.194;7.268;2023-10-09T13:56:11;20.30;99.90
49218;DHT22;35045;51.194;7.268;2023-10-09T13:58:41;20.30;99.90
49218;DHT22;35045;51.194;7.268;2023-10-09T14:01:09;20.20;99.90
49218;DHT22;35045;51.194;7.268;2023-10-09T14:03:35;20.30;99.90
49218;DHT22;35045;51.194;7.268;2023-10-09T14:06:05;20.50;99.90
49218;DHT22;35045;51.194;7.268;2023-10-09T14:08:38;20.70;99.90
49218;DHT22;35045;51.194;7.268;2023-10-09T14:11:10;20.90;99.90
49218;DHT22;35045;51.194;7.268;2023-10-09T14:13:42;21.00;99.90
49218;DHT22;35045;51.194;7.268;2023-10-09T14:16:08;21.00;99.90
49218;DHT22;35045;51.194;7.268;2023-10-09T14:18:50;21.00;99.90
49218;DHT22;35045;51.194;7.268;2023-10-09T14:21:25;20.90;99.90
49218;DHT22;35045;51.194;7.268;2023-10-09T14:23:52;20.80;99.90
49218;DHT22;35045;51.194;7.268;2023-10-09T14:26:23;20.70;99.90
49218;DHT22;35045;51.194;7.268;2023-10-09T14:28:51;20.60;99.90
49218;DHT22;35045;51.194;7.268;2023-10-09T14:31:18;20.40;99.90
49218;DHT22;35045;51.194;7.268;2023-10-09T14:33:55;20.20;99.90
49218;DHT22;35045;51.194;7.268;2023-10-09T14:36:22;20.20;99.90
49218;DHT22;35045;51.194;7.268;2023-10-09T14:38:49;20.10;99.90
49218;DHT22;35045;51.194;7.268;2023-10-09T14:41:21;20.10;99.90
49218;DHT22;35045;51.194;7.268;2023-10-09T14:43:51;20.10;99.90
49218;DHT22;35045;51.194;7.268;2023-10-09T14:46:18;20.10;99.90
49218;DHT22;35045;51.194;7.268;2023-10-09T14:48:51;20.10;99.90
49218;DHT22;35045;51.194;7.268;2023-10-09T14:51:19;20.10;99.90
49218;DHT22;35045;51.194;7.268;2023-10-09T14:53:53;19.90;99.90
49218;DHT22;35045;51.194;7.268;2023-10-09T14:56:19;19.80;99.90
49218;DHT22;35045;51.194;7.268;2023-10-09T14:58:55;19.80;99.90
49218;DHT22;35045;51.194;7.268;2023-10-09T15:01:22;19.70;99.90
49218;DHT22;35045;51.194;7.268;2023-10-09T15:03:51;19.60;99.90
49218;DHT22;35045;51.194;7.268;2023-10-09T15:06:23;19.70;99.90
49218;DHT22;35045;51.194;7.268;2023-10-09T15:08:50;19.70;99.90
49218;DHT22;35045;51.194;7.268;2023-10-09T15:11:16;19.70;99.90
49218;DHT22;35045;51.194;7.268;2023-10-09T15:13:42;19.60;99.90
49218;DHT22;35045;51.194;7.268;2023-10-09T15:16:08;19.40;99.90
49218;DHT22;35045;51.194;7.268;2023-10-09T15:18:36;19.40;99.90
49218;DHT22;35045;51.194;7.268;2023-10-09T15:21:03;19.40;99.90
49218;DHT22;35045;51.194;7.268;2023-10-09T15:23:29;19.30;99.90
49218;DHT22;35045;51.194;7.268;2023-10-09T15:25:55;19.30;99.90
49218;DHT22;35045;51.194;7.268;2023-10-09T15:28:21;19.20;99.90
49218;DHT22;35045;51.194;7.268;2023-10-09T15:30:48;19.20;99.90
49218;DHT22;35045;51.194;7.268;2023-10-09T15:33:15;19.20;99.90
49218;DHT22;35045;51.194;7.268;2023-10-09T15:35:43;19.10;99.90
49218;DHT22;35045;51.194;7.268;2023-10-09T15:38:12;19.00;99.90
49218;DHT22;35045;51.194;7.268;2023-10-09T15:40:39;19.00;99.90
49218;DHT22;35045;51.194;7.268;2023-10-09T15:43:08;19.00;99.90
49218;DHT22;35045;51.194;7.268;2023-10-09T15:45:44;18.90;99.90
49218;DHT22;35045;51.194;7.268;2023-10-09T15:48:14;19.00;99.90
49218;DHT22;35045;51.194;7.268;2023-10-09T15:50:44;18.90;99.90
49218;DHT22;35045;51.194;7.268;2023-10-09T15:53:20;19.00;99.90
49218;DHT22;35045;51.194;7.268;2023-10-09T15:55:47;19.00;99.90
49218;DHT22;35045;51.194;7.268;2023-10-09T15:58:17;19.00;99.90
49218;DHT22;35045;51.194;7.268;2023-10-09T16:00:44;19.00;99.90
49218;DHT22;35045;51.194;7.268;2023-10-09T16:03:10;19.00;99.90
49218;DHT22;35045;51.194;7.268;2023-10-09T16:05:36;19.10;99.90
49218;DHT22;35045;51.194;7.268;2023-10-09T16:08:02;19.10;99.90
49218;DHT22;35045;51.194;7.268;2023-10-09T16:10:29;19.20;99.90
49218;DHT22;35045;51.194;7.268;2023-10-09T16:12:57;19.10;99.90
49218;DHT22;35045;51.194;7.268;2023-10-09T16:15:23;19.10;99.90
49218;DHT22;35045;51.194;7.268;2023-10-09T16:17:50;19.10;99.90
49218;DHT22;35045;51.194;7.268;2023-10-09T16:20:29;19.10;99.90
49218;DHT22;35045;51.194;7.268;2023-10-09T16:23:00;19.00;99.90
49218;DHT22;35045;51.194;7.268;2023-10-09T16:25:30;18.90;99.90
49218;DHT22;35045;51.194;7.268;2023-10-09T16:27:56;18.90;99.90